Time;durP1;ratioP1;P1;durP2;ratioP2;P2;SDS_P1;SDS_P2;PMS_P1;PMS_P2;Temp;Humidity;BMP_temperature;BMP_pressure;BME280_temperature;BME280_humidity;BME280_pressure;Samples;Min_cycle;Max_cycle;Signal;HPM_P1;HPM_P2
2023/11/09 00:01:00;;;;;;;16.60;12.20;;;;;;;5.92;100.00;98937.07;109794;1251;65614;-71
2023/11/09 00:03:47;;;;;;;18.50;12.20;;;;;;;5.93;100.00;98935.44;109744;1249;61938;-69
2023/11/09 00:06:14;;;;;;;17.40;11.30;;;;;;;5.93;100.00;98934.02;109755;1251;73559;-69
2023/11/09 00:08:43;;;;;;;22.60;13.30;;;;;;;5.93;100.00;98935.59;109819;1249;60120;-69
2023/11/09 00:11:09;;;;;;;16.60;11.80;;;;;;;5.93;100.00;98937.38;109816;1249;59804;-69
2023/11/09 00:13:36;;;;;;;18.10;12.00;;;;;;;5.92;100.00;98934.58;109832;1250;66992;-69
2023/11/09 00:16:03;;;;;;;19.00;12.70;;;;;;;5.92;100.00;98936.17;109776;1250;60963;-69
2023/11/09 00:18:30;;;;;;;14.60;11.50;;;;;;;5.91;100.00;98932.73;109732;1249;62840;-69
2023/11/09 00:20:58;;;;;;;19.30;13.30;;;;;;;5.89;100.00;98935.08;109768;1250;59823;-69
2023/11/09 00:23:46;;;;;;;17.80;13.10;;;;;;;5.87;100.00;98930.45;109825;1249;59831;-70
2023/11/09 00:26:14;;;;;;;20.60;13.70;;;;;;;5.82;100.00;98931.36;109220;1254;65765;-69
2023/11/09 00:28:40;;;;;;;20.00;13.50;;;;;;;5.80;100.00;98932.37;109319;1254;60148;-70
2023/11/09 00:31:07;;;;;;;23.70;15.00;;;;;;;5.76;100.00;98929.23;109265;1254;64868;-69
2023/11/09 00:33:33;;;;;;;20.00;14.20;;;;;;;5.72;100.00;98924.79;109310;1254;59794;-70
2023/11/09 00:36:00;;;;;;;20.70;15.20;;;;;;;5.69;100.00;98922.13;109317;1254;60017;-69
2023/11/09 00:38:26;;;;;;;21.20;15.70;;;;;;;5.68;100.00;98922.88;109036;1254;66824;-70
2023/11/09 00:40:53;;;;;;;20.20;15.70;;;;;;;5.66;100.00;98923.17;109302;1254;59918;-69
2023/11/09 00:43:19;;;;;;;20.30;15.80;;;;;;;5.63;100.00;98919.77;109299;1254;59872;-69
2023/11/09 00:45:46;;;;;;;17.60;14.40;;;;;;;5.61;100.00;98924.11;109272;1254;59871;-69
2023/11/09 00:48:13;;;;;;;17.40;12.80;;;;;;;5.57;100.00;98926.04;109306;1254;60145;-70
2023/11/09 00:50:40;;;;;;;15.80;13.30;;;;;;;5.56;100.00;98925.23;109252;1254;66944;-70
2023/11/09 00:53:06;;;;;;;16.00;12.00;;;;;;;5.56;100.00;98926.31;109097;1254;60093;-69
2023/11/09 00:55:33;;;;;;;16.20;13.70;;;;;;;5.54;100.00;98924.96;109318;1254;64960;-69
2023/11/09 00:57:59;;;;;;;17.40;13.00;;;;;;;5.52;100.00;98919.24;109090;1254;59862;-70
2023/11/09 01:00:27;;;;;;;17.80;13.80;;;;;;;5.49;100.00;98914.98;109320;1254;59900;-70
2023/11/09 01:02:54;;;;;;;16.20;13.60;;;;;;;5.46;100.00;98912.98;109096;1254;66806;-69
2023/11/09 01:05:21;;;;;;;14.70;12.80;;;;;;;5.45;100.00;98911.13;109773;1251;60018;-70
2023/11/09 01:07:48;;;;;;;15.50;12.90;;;;;;;5.42;100.00;98908.23;109404;1250;65280;-69
2023/11/09 01:10:17;;;;;;;14.50;13.00;;;;;;;5.39;100.00;98907.89;109755;1250;59784;-70
2023/11/09 01:12:43;;;;;;;17.20;14.00;;;;;;;5.34;100.00;98908.63;109803;1251;59802;-70
2023/11/09 01:15:10;;;;;;;23.00;19.30;;;;;;;5.28;100.00;98909.23;109754;1249;67961;-70
2023/11/09 01:17:41;;;;;;;22.20;18.40;;;;;;;5.22;100.00;98901.11;109536;1251;59997;-69
2023/11/09 01:20:08;;;;;;;22.10;18.70;;;;;;;5.17;100.00;98901.87;109776;1249;64081;-70
2023/11/09 01:22:35;;;;;;;20.10;17.00;;;;;;;5.11;100.00;98899.50;109721;1250;59983;-69
2023/11/09 01:25:01;;;;;;;22.70;20.20;;;;;;;5.05;100.00;98893.78;109764;1249;60108;-70
2023/11/09 01:27:28;;;;;;;26.40;19.30;;;;;;;4.98;100.00;98894.98;109729;1250;67733;-69
2023/11/09 01:29:54;;;;;;;22.20;18.70;;;;;;;4.91;100.00;98893.38;109781;1249;59777;-69
2023/11/09 01:32:21;;;;;;;19.90;15.30;;;;;;;4.82;100.00;98893.40;109726;1251;63783;-70
2023/11/09 01:34:47;;;;;;;22.10;17.70;;;;;;;4.74;100.00;98892.73;109766;1250;59869;-69
2023/11/09 01:37:14;;;;;;;19.70;16.10;;;;;;;4.67;100.00;98893.23;109783;1251;60506;-70
2023/11/09 01:39:40;;;;;;;18.00;14.70;;;;;;;4.60;100.00;98890.36;109783;1249;66532;-70
2023/11/09 01:42:07;;;;;;;17.70;14.70;;;;;;;4.54;100.00;98896.41;109812;1250;60246;-70
2023/11/09 01:44:34;;;;;;;19.40;15.10;;;;;;;4.49;100.00;98896.48;109578;1249;62537;-70
2023/11/09 01:47:01;;;;;;;18.10;14.90;;;;;;;4.43;100.00;98896.04;109756;1250;59793;-70
2023/11/09 01:49:30;;;;;;;19.50;14.40;;;;;;;4.37;100.00;98896.10;109743;1249;59692;-71
2023/11/09 01:51:56;;;;;;;17.40;15.00;;;;;;;4.32;100.00;98893.54;109836;1249;65654;-70
2023/11/09 01:54:23;;;;;;;17.10;15.30;;;;;;;4.27;100.00;98890.93;109769;1249;60073;-70
2023/11/09 01:56:51;;;;;;;17.30;15.50;;;;;;;4.22;100.00;98891.11;109787;1249;64149;-70
2023/11/09 01:59:19;;;;;;;17.00;14.50;;;;;;;4.18;100.00;98891.12;109763;1249;59768;-70
2023/11/09 02:01:46;;;;;;;17.20;13.70;;;;;;;4.14;100.00;98886.73;109800;1250;59815;-70
2023/11/09 02:04:14;;;;;;;16.20;13.20;;;;;;;4.09;100.00;98887.63;109793;1249;66688;-69
2023/11/09 02:06:42;;;;;;;19.70;15.60;;;;;;;4.06;100.00;98887.63;109767;1250;59761;-70
2023/11/09 02:09:09;;;;;;;20.00;14.90;;;;;;;4.02;100.00;98886.36;109746;1249;64020;-69
2023/11/09 02:11:36;;;;;;;18.80;15.30;;;;;;;4.00;100.00;98886.27;109775;1249;60289;-70
2023/11/09 02:14:02;;;;;;;20.00;15.00;;;;;;;3.99;100.00;98884.39;109801;1249;60282;-70
2023/11/09 02:16:30;;;;;;;18.30;15.60;;;;;;;3.96;100.00;98883.60;109758;1249;66660;-70
2023/11/09 02:18:57;;;;;;;19.80;16.10;;;;;;;3.94;100.00;98885.98;109774;1249;61421;-70
2023/11/09 02:21:25;;;;;;;21.40;17.30;;;;;;;3.92;100.00;98884.65;109752;1249;59884;-70
2023/11/09 02:23:54;;;;;;;18.90;16.90;;;;;;;3.90;100.00;98883.50;109772;1250;59895;-70
2023/11/09 02:26:21;;;;;;;20.80;16.40;;;;;;;3.89;100.00;98882.67;109737;1250;59717;-70
2023/11/09 02:28:48;;;;;;;22.40;16.90;;;;;;;3.87;100.00;98884.36;109751;1250;66762;-70
2023/11/09 02:31:14;;;;;;;18.60;16.00;;;;;;;3.85;100.00;98885.84;109843;1249;59760;-70
2023/11/09 02:33:41;;;;;;;20.50;17.10;;;;;;;3.82;100.00;98884.73;109802;1251;62563;-69
2023/11/09 02:36:08;;;;;;;21.30;16.10;;;;;;;3.78;100.00;98882.98;109759;1249;60123;-69
2023/11/09 02:38:34;;;;;;;23.00;18.10;;;;;;;3.73;100.00;98883.67;109588;1249;59862;-69
2023/11/09 02:41:01;;;;;;;22.10;16.80;;;;;;;3.69;100.00;98882.80;109797;1250;59735;-69
2023/11/09 02:43:28;;;;;;;20.10;17.00;;;;;;;3.64;100.00;98882.28;109768;1249;59888;-69
2023/11/09 02:45:57;;;;;;;21.60;16.50;;;;;;;3.58;100.00;98882.54;109770;1249;59877;-70
2023/11/09 02:48:24;;;;;;;23.10;17.40;;;;;;;3.51;100.00;98879.30;109426;1251;59870;-70
2023/11/09 02:50:51;;;;;;;21.60;18.10;;;;;;;3.43;100.00;98874.00;109786;1250;59980;-70
2023/11/09 02:53:18;;;;;;;23.20;18.30;;;;;;;3.38;100.00;98875.80;109763;1251;66847;-69
2023/11/09 02:55:44;;;;;;;21.10;16.10;;;;;;;3.35;100.00;98874.87;109791;1249;60168;-69
2023/11/09 02:58:11;;;;;;;18.60;15.80;;;;;;;3.28;100.00;98875.46;109772;1249;63003;-69
2023/11/09 03:00:38;;;;;;;20.90;16.80;;;;;;;3.21;100.00;98867.66;109780;1249;59761;-69
2023/11/09 03:03:04;;;;;;;20.80;15.50;;;;;;;3.16;100.00;98864.36;109063;1249;1003099;-69
2023/11/09 03:05:31;;;;;;;20.90;16.70;;;;;;;3.10;100.00;98865.80;109774;1249;59777;-70
2023/11/09 03:07:57;;;;;;;22.70;17.40;;;;;;;3.06;100.00;98863.35;109791;1250;59767;-69
2023/11/09 03:10:24;;;;;;;21.80;16.60;;;;;;;3.01;100.00;98862.14;109783;1249;64179;-69
2023/11/09 03:12:51;;;;;;;18.80;15.20;;;;;;;2.96;100.00;98864.09;109774;1250;59840;-69
2023/11/09 03:15:19;;;;;;;20.00;15.40;;;;;;;2.89;100.00;98865.38;109839;1249;60133;-69
2023/11/09 03:17:46;;;;;;;17.50;15.20;;;;;;;2.83;100.00;98866.50;109813;1249;66673;-69
2023/11/09 03:20:12;;;;;;;17.40;15.60;;;;;;;2.76;100.00;98868.70;109839;1249;60136;-69
2023/11/09 03:22:39;;;;;;;17.90;15.70;;;;;;;2.71;100.00;98870.62;109792;1250;62825;-69
2023/11/09 03:25:07;;;;;;;19.10;16.60;;;;;;;2.67;100.00;98865.16;109518;1249;60112;-69
2023/11/09 03:27:33;;;;;;;19.80;16.80;;;;;;;2.63;100.00;98868.29;108989;1249;1002743;-69
2023/11/09 03:30:00;;;;;;;19.70;16.30;;;;;;;2.59;100.00;98868.42;109800;1251;65751;-69
2023/11/09 03:32:27;;;;;;;21.10;17.30;;;;;;;2.56;100.00;98873.08;109823;1250;60004;-69
2023/11/09 03:34:56;;;;;;;19.80;17.60;;;;;;;2.53;100.00;98875.48;109773;1250;63248;-70
2023/11/09 03:37:23;;;;;;;23.20;20.60;;;;;;;2.50;100.00;98872.96;109764;1249;59860;-69
2023/11/09 03:39:50;;;;;;;25.50;22.80;;;;;;;2.47;100.00;98869.91;109810;1249;59866;-69
2023/11/09 03:42:16;;;;;;;23.60;20.00;;;;;;;2.46;100.00;98869.11;109509;1249;65778;-69
2023/11/09 03:44:44;;;;;;;26.90;18.50;;;;;;;2.44;100.00;98868.10;109804;1249;59772;-69
2023/11/09 03:47:10;;;;;;;20.80;18.10;;;;;;;2.43;100.00;98870.63;108250;1249;1003081;-71
2023/11/09 03:49:41;;;;;;;21.10;18.70;;;;;;;2.40;100.00;98874.02;109562;1249;59858;-69
2023/11/09 03:52:08;;;;;;;25.10;20.30;;;;;;;2.37;100.00;98871.50;109437;1252;60487;-69
2023/11/09 03:54:35;;;;;;;23.50;18.80;;;;;;;2.34;100.00;98868.45;109326;1253;66551;-70
2023/11/09 03:57:02;;;;;;;20.90;18.60;;;;;;;2.34;100.00;98862.68;109490;1253;69082;-69
2023/11/09 03:59:28;;;;;;;26.90;18.60;;;;;;;2.34;100.00;98862.32;109315;1253;63798;-69
2023/11/09 04:01:55;;;;;;;24.20;18.40;;;;;;;2.33;100.00;98862.54;109460;1253;60148;-69
2023/11/09 04:04:23;;;;;;;20.10;18.00;;;;;;;2.30;100.00;98861.76;109130;1252;59893;-70
2023/11/09 04:06:49;;;;;;;27.10;18.90;;;;;;;2.28;100.00;98861.85;109436;1253;67781;-69
2023/11/09 04:09:16;;;;;;;21.30;18.30;;;;;;;2.24;100.00;98857.40;109439;1253;59959;-70
2023/11/09 04:11:43;;;;;;;21.00;18.70;;;;;;;2.24;100.00;98854.98;109399;1253;63620;-70
2023/11/09 04:14:09;;;;;;;20.40;17.60;;;;;;;2.24;100.00;98854.63;109437;1253;59996;-70
2023/11/09 04:16:36;;;;;;;18.50;16.40;;;;;;;2.21;100.00;98848.08;109438;1252;59869;-70
2023/11/09 04:19:02;;;;;;;19.00;16.20;;;;;;;2.18;100.00;98847.64;109440;1253;66881;-69
2023/11/09 04:21:29;;;;;;;15.90;14.00;;;;;;;2.13;100.00;98846.77;109467;1253;60383;-69
2023/11/09 04:23:55;;;;;;;18.40;15.40;;;;;;;2.07;100.00;98845.73;109711;1249;62921;-69
2023/11/09 04:26:22;;;;;;;17.90;15.80;;;;;;;2.02;100.00;98839.42;109729;1249;59791;-69
2023/11/09 04:28:52;;;;;;;22.30;17.00;;;;;;;1.99;100.00;98843.92;109785;1250;59709;-69
2023/11/09 04:31:23;;;;;;;22.90;16.90;;;;;;;1.96;100.00;98848.42;109801;1250;66552;-69
2023/11/09 04:33:54;;;;;;;20.20;16.60;;;;;;;1.92;100.00;98845.91;109837;1249;59849;-69
2023/11/09 04:39:50;;;;;;;18.90;16.50;;;;;;;1.87;100.00;98844.16;109815;1250;59752;-69
2023/11/09 04:42:23;;;;;;;20.10;16.70;;;;;;;1.84;100.00;98842.35;109802;1250;59865;-70
2023/11/09 04:44:56;;;;;;;18.50;16.20;;;;;;;1.81;100.00;98840.34;109809;1250;66804;-70
2023/11/09 04:47:25;;;;;;;21.60;18.00;;;;;;;1.79;100.00;98838.31;109836;1249;61303;-70
2023/11/09 04:49:58;;;;;;;20.80;17.40;;;;;;;1.78;100.00;98832.74;109812;1249;63739;-70
2023/11/09 04:52:27;;;;;;;19.60;17.40;;;;;;;1.75;100.00;98826.00;109784;1250;59802;-70
2023/11/09 04:55:12;;;;;;;20.90;17.40;;;;;;;1.70;100.00;98826.33;109836;1249;59762;-70
2023/11/09 05:08:41;;;;;;;19.80;16.00;;;;;;;1.52;100.00;98821.01;109794;1249;59837;-70
2023/11/09 05:11:13;;;;;;;18.80;16.60;;;;;;;1.46;100.00;98819.26;109804;1249;66505;-70
2023/11/09 05:13:40;;;;;;;20.00;16.60;;;;;;;1.43;100.00;98824.27;109815;1249;61116;-70
2023/11/09 05:16:07;;;;;;;18.30;16.40;;;;;;;1.39;100.00;98820.02;109771;1250;63749;-70
2023/11/09 05:18:34;;;;;;;21.40;16.50;;;;;;;1.36;100.00;98812.77;109827;1249;59795;-71
2023/11/09 05:21:02;;;;;;;18.30;16.20;;;;;;;1.34;100.00;98815.81;109046;1249;1002722;-71
2023/11/09 05:23:29;;;;;;;21.50;17.40;;;;;;;1.33;100.00;98816.56;109856;1249;66866;-70
2023/11/09 05:25:55;;;;;;;23.60;18.20;;;;;;;1.32;100.00;98816.76;109781;1249;59942;-70
2023/11/09 05:28:22;;;;;;;21.60;18.90;;;;;;;1.31;100.00;98817.11;109811;1249;63777;-69
2023/11/09 05:30:52;;;;;;;25.00;18.70;;;;;;;1.30;100.00;98812.61;109852;1249;60248;-70
2023/11/09 05:33:18;;;;;;;21.70;18.90;;;;;;;1.30;100.00;98809.98;109440;1250;60144;-70
2023/11/09 05:35:45;;;;;;;20.60;18.40;;;;;;;1.31;100.00;98809.96;109807;1250;66513;-69
2023/11/09 05:38:13;;;;;;;24.10;19.90;;;;;;;1.32;100.00;98809.93;109504;1253;60250;-69
2023/11/09 05:40:42;;;;;;;25.30;18.60;;;;;;;1.33;100.00;98808.52;109819;1250;62891;-69
2023/11/09 05:43:11;;;;;;;21.00;17.90;;;;;;;1.34;100.00;98806.38;109770;1250;59973;-69
2023/11/09 05:45:37;;;;;;;23.70;19.00;;;;;;;1.35;100.00;98806.16;109842;1249;59756;-70
2023/11/09 05:48:04;;;;;;;24.80;18.30;;;;;;;1.37;100.00;98806.61;109855;1249;66808;-69
2023/11/09 05:50:31;;;;;;;23.20;19.00;;;;;;;1.41;100.00;98809.83;109863;1250;60705;-69
2023/11/09 05:52:57;;;;;;;20.20;18.10;;;;;;;1.42;100.00;98803.98;109821;1249;62826;-69
2023/11/09 05:55:24;;;;;;;22.80;19.20;;;;;;;1.46;100.00;98801.58;109786;1249;60129;-70
2023/11/09 05:57:51;;;;;;;23.80;18.60;;;;;;;1.50;100.00;98793.56;109848;1249;59746;-70
2023/11/09 06:00:18;;;;;;;27.40;23.50;;;;;;;1.55;100.00;98786.74;109843;1249;66837;-70
2023/11/09 06:02:44;;;;;;;24.60;20.20;;;;;;;1.63;100.00;98782.98;109844;1249;60486;-70
2023/11/09 06:05:11;;;;;;;24.30;20.30;;;;;;;1.70;100.00;98782.20;109581;1250;63799;-69
2023/11/09 06:07:39;;;;;;;24.20;21.00;;;;;;;1.78;100.00;98777.92;109824;1249;59851;-69
2023/11/09 06:10:08;;;;;;;26.30;20.60;;;;;;;1.86;100.00;98782.54;109833;1249;61563;-69
2023/11/09 06:12:40;;;;;;;26.60;20.80;;;;;;;1.92;100.00;98785.81;109862;1249;67842;-70
2023/11/09 06:15:07;;;;;;;25.00;19.80;;;;;;;1.98;100.00;98782.11;109824;1249;69910;-70
2023/11/09 06:17:36;;;;;;;21.80;18.80;;;;;;;2.04;100.00;98781.38;109853;1249;62872;-70
2023/11/09 06:20:05;;;;;;;21.60;19.20;;;;;;;2.09;100.00;98777.66;109812;1249;59957;-70
2023/11/09 06:22:31;;;;;;;22.90;19.40;;;;;;;2.16;100.00;98774.11;109817;1250;59960;-70
2023/11/09 06:24:58;;;;;;;24.80;19.60;;;;;;;2.24;100.00;98774.34;109865;1249;65700;-70
2023/11/09 06:27:27;;;;;;;28.60;20.50;;;;;;;2.33;100.00;98770.00;109882;1249;59932;-70
2023/11/09 06:29:54;;;;;;;29.80;20.40;;;;;;;2.44;100.00;98775.02;109600;1249;63778;-71
2023/11/09 06:32:20;;;;;;;20.90;18.10;;;;;;;2.55;100.00;98780.01;109858;1249;59841;-71
2023/11/09 06:34:47;;;;;;;22.80;18.40;;;;;;;2.65;100.00;98783.34;109545;1250;59804;-70
2023/11/09 06:37:14;;;;;;;22.70;18.40;;;;;;;2.72;100.00;98784.81;109825;1250;66624;-70
2023/11/09 06:39:46;;;;;;;22.70;16.80;;;;;;;2.77;100.00;98778.64;109847;1250;59848;-70
2023/11/09 06:42:15;;;;;;;23.00;16.50;;;;;;;2.84;100.00;98775.20;109885;1250;62611;-70
2023/11/09 06:44:43;;;;;;;22.20;16.80;;;;;;;2.93;100.00;98780.29;109799;1250;59781;-70
2023/11/09 06:47:11;;;;;;;21.00;15.90;;;;;;;3.01;100.00;98780.85;109848;1250;60086;-70
2023/11/09 06:49:37;;;;;;;22.30;15.40;;;;;;;3.10;100.00;98780.87;109844;1249;66564;-70
2023/11/09 06:52:04;;;;;;;24.50;15.00;;;;;;;3.22;100.00;98775.31;109850;1250;59815;-70
2023/11/09 06:54:32;;;;;;;21.30;14.20;;;;;;;3.33;100.00;98773.98;109849;1249;65506;-70
2023/11/09 06:56:59;;;;;;;18.80;14.80;;;;;;;3.45;100.00;98774.16;109826;1249;59838;-71
2023/11/09 06:59:25;;;;;;;23.30;17.60;;;;;;;3.61;100.00;98773.52;109857;1250;59782;-71
2023/11/09 07:01:53;;;;;;;24.00;16.90;;;;;;;3.77;100.00;98770.19;109844;1249;67761;-70
2023/11/09 07:04:19;;;;;;;31.60;20.40;;;;;;;3.93;100.00;98763.00;109868;1249;61094;-70
2023/11/09 07:06:47;;;;;;;24.50;17.40;;;;;;;4.08;100.00;98760.06;109460;1250;63863;-70
2023/11/09 07:09:13;;;;;;;21.10;16.20;;;;;;;4.23;100.00;98758.70;109792;1249;59838;-70
2023/11/09 07:11:42;;;;;;;19.10;16.60;;;;;;;4.36;100.00;98758.42;109836;1249;60042;-70
2023/11/09 07:14:10;;;;;;;24.20;17.90;;;;;;;4.49;100.00;98761.70;109849;1249;66514;-71
2023/11/09 07:16:37;;;;;;;24.00;18.00;;;;;;;4.62;100.00;98766.77;109865;1250;60148;-70
2023/11/09 07:19:04;;;;;;;20.60;17.80;;;;;;;4.73;100.00;98764.67;109849;1249;64049;-70
2023/11/09 07:21:30;;;;;;;24.30;17.40;;;;;;;4.83;100.00;98766.63;109854;1249;59805;-70
2023/11/09 07:24:04;;;;;;;23.40;19.60;;;;;;;4.93;100.00;98765.98;109841;1250;59878;-71
2023/11/09 07:26:30;;;;;;;30.60;22.20;;;;;;;5.03;100.00;98760.41;109842;1250;67991;-70
2023/11/09 07:28:57;;;;;;;25.30;22.20;;;;;;;5.14;100.00;98756.90;109865;1251;59779;-70
2023/11/09 07:31:25;;;;;;;28.50;22.10;;;;;;;5.22;100.00;98754.36;109814;1251;64969;-71
2023/11/09 07:33:52;;;;;;;25.80;22.80;;;;;;;5.31;100.00;98751.83;109523;1250;59868;-71
2023/11/09 07:36:18;;;;;;;26.30;21.90;;;;;;;5.39;100.00;98752.83;109840;1250;59762;-71
2023/11/09 07:38:45;;;;;;;27.60;22.80;;;;;;;5.48;100.00;98750.09;109846;1250;66949;-70
2023/11/09 07:41:14;;;;;;;27.70;22.60;;;;;;;5.58;100.00;98747.50;109818;1250;59757;-70
2023/11/09 07:43:42;;;;;;;28.50;22.30;;;;;;;5.67;100.00;98743.66;109792;1250;64054;-70
2023/11/09 07:46:09;;;;;;;27.40;21.30;;;;;;;5.76;100.00;98740.77;109835;1249;59822;-70
2023/11/09 07:48:35;;;;;;;28.10;21.20;;;;;;;5.84;100.00;98741.08;109846;1250;59772;-70
2023/11/09 07:51:02;;;;;;;27.30;21.20;;;;;;;5.91;100.00;98736.29;109455;1250;66790;-70
2023/11/09 07:53:28;;;;;;;24.00;20.00;;;;;;;5.98;100.00;98730.48;109821;1249;60142;-70
2023/11/09 07:55:55;;;;;;;24.60;20.10;;;;;;;6.06;100.00;98730.97;109816;1250;63429;-71
2023/11/09 07:58:22;;;;;;;26.10;19.20;;;;;;;6.13;100.00;98729.50;109862;1250;59832;-71
2023/11/09 08:00:51;;;;;;;22.40;18.30;;;;;;;6.22;100.00;98729.41;109878;1250;59786;-70
2023/11/09 08:03:18;;;;;;;21.80;18.50;;;;;;;6.31;100.00;98726.98;109499;1250;66781;-70
2023/11/09 08:05:46;;;;;;;20.60;16.80;;;;;;;6.41;100.00;98723.05;109852;1250;60206;-70
2023/11/09 08:08:14;;;;;;;22.90;16.70;;;;;;;6.51;100.00;98717.61;109467;1250;63912;-70
2023/11/09 08:10:41;;;;;;;20.80;16.40;;;;;;;6.60;100.00;98720.65;109827;1250;59939;-70
2023/11/09 08:13:08;;;;;;;20.20;16.40;;;;;;;6.69;100.00;98722.60;109840;1249;59824;-71
2023/11/09 08:15:38;;;;;;;21.20;15.40;;;;;;;6.79;100.00;98721.88;109408;1250;66540;-70
2023/11/09 08:18:04;;;;;;;22.60;15.40;;;;;;;6.89;100.00;98722.58;109820;1251;60198;-70
2023/11/09 08:20:31;;;;;;;22.10;15.20;;;;;;;6.98;100.00;98718.46;109844;1250;63854;-70
2023/11/09 08:22:57;;;;;;;17.90;14.00;;;;;;;7.10;100.00;98711.84;109848;1251;59944;-69
2023/11/09 08:25:24;;;;;;;17.20;13.20;;;;;;;7.21;100.00;98711.04;109829;1249;59842;-70
2023/11/09 08:27:53;;;;;;;18.60;14.80;;;;;;;7.32;100.00;98708.60;109853;1250;66846;-69
2023/11/09 08:30:26;;;;;;;19.60;14.40;;;;;;;7.46;100.00;98706.38;109866;1250;60172;-72
2023/11/09 08:32:55;;;;;;;16.90;13.50;;;;;;;7.61;100.00;98702.66;109840;1249;64093;-70
2023/11/09 08:35:24;;;;;;;16.70;12.00;;;;;;;7.75;100.00;98699.86;109590;1250;59831;-69
2023/11/09 08:37:53;;;;;;;16.70;12.10;;;;;;;7.89;100.00;98702.75;109872;1250;59771;-70
2023/11/09 08:40:27;;;;;;;19.70;14.20;;;;;;;8.02;100.00;98695.59;109841;1250;67585;-70
2023/11/09 08:42:54;;;;;;;22.80;14.50;;;;;;;8.17;100.00;98694.52;109864;1249;59775;-70
2023/11/09 08:45:23;;;;;;;21.10;11.90;;;;;;;8.29;100.00;98692.28;109822;1249;63782;-70
2023/11/09 08:47:51;;;;;;;25.30;12.70;;;;;;;8.44;100.00;98684.48;109822;1249;59761;-70
2023/11/09 08:50:20;;;;;;;19.20;10.60;;;;;;;8.61;100.00;98680.23;109838;1251;59745;-70
2023/11/09 08:52:51;;;;;;;16.80;8.80;;;;;;;8.78;100.00;98679.87;109856;1250;66968;-70
2023/11/09 08:55:18;;;;;;;10.30;7.20;;;;;;;8.92;100.00;98674.34;109420;1249;60247;-70
2023/11/09 08:57:45;;;;;;;10.40;7.00;;;;;;;9.05;100.00;98669.95;109426;1252;64383;-70
2023/11/09 09:00:12;;;;;;;8.60;6.30;;;;;;;9.17;100.00;98667.35;109387;1253;59992;-69
2023/11/09 09:02:45;;;;;;;9.60;6.60;;;;;;;9.32;100.00;98669.23;109449;1253;59877;-69
2023/11/09 09:05:19;;;;;;;9.20;6.70;;;;;;;9.47;100.00;98666.08;109438;1252;66914;-70
2023/11/09 09:07:48;;;;;;;10.30;7.10;;;;;;;9.62;100.00;98665.04;109446;1252;60419;-70
2023/11/09 09:10:16;;;;;;;9.70;5.80;;;;;;;9.78;100.00;98661.65;109060;1254;140293;-69
2023/11/09 09:12:46;;;;;;;7.80;5.30;;;;;;;9.95;100.00;98661.19;109434;1252;59918;-69
2023/11/09 09:15:16;;;;;;;4.80;3.60;;;;;;;10.12;100.00;98665.71;109454;1252;59701;-70
2023/11/09 09:17:43;;;;;;;3.20;2.10;;;;;;;10.26;100.00;98661.51;109431;1253;66519;-70
2023/11/09 09:20:12;;;;;;;28.80;14.70;;;;;;;10.39;100.00;98661.13;109414;1252;59845;-70
2023/11/09 09:22:39;;;;;;;9.90;5.70;;;;;;;10.51;100.00;98656.00;109420;1254;63776;-70
2023/11/09 09:25:10;;;;;;;6.60;2.90;;;;;;;10.61;100.00;98654.38;109408;1252;60040;-70
2023/11/09 09:27:40;;;;;;;5.20;4.30;;;;;;;10.73;100.00;98653.32;109436;1253;59848;-70
2023/11/09 09:30:13;;;;;;;3.60;2.40;;;;;;;10.84;100.00;98653.23;109509;1251;68039;-70
2023/11/09 09:32:56;;;;;;;3.60;2.40;;;;;;;10.94;100.00;98649.31;109595;1250;60225;-70
2023/11/09 09:35:28;;;;;;;3.10;1.70;;;;;;;11.06;100.00;98652.73;109854;1249;64013;-70
2023/11/09 09:37:58;;;;;;;1.90;1.40;;;;;;;11.16;100.00;98646.45;109825;1249;59820;-69
2023/11/09 09:40:26;;;;;;;1.60;1.40;;;;;;;11.29;100.00;98642.45;109858;1249;61275;-70
2023/11/09 09:42:53;;;;;;;3.80;1.90;;;;;;;11.40;100.00;98644.27;109845;1250;65628;-69
2023/11/09 09:45:22;;;;;;;2.20;1.70;;;;;;;11.51;100.00;98641.82;109860;1250;59814;-69
2023/11/09 09:47:50;;;;;;;2.70;1.80;;;;;;;11.63;100.00;98639.85;109451;1253;64164;-69
2023/11/09 09:50:17;;;;;;;4.00;2.40;;;;;;;11.75;100.00;98641.61;109826;1249;59775;-69
2023/11/09 09:52:48;;;;;;;2.00;1.40;;;;;;;11.84;100.00;98644.09;109812;1250;59676;-70
2023/11/09 09:55:18;;;;;;;2.30;1.50;;;;;;;11.94;100.00;98642.52;109842;1251;65200;-69
2023/11/09 09:57:45;;;;;;;3.30;1.60;;;;;;;12.02;100.00;98634.70;109844;1250;60252;-70
2023/11/09 10:00:23;;;;;;;1.60;1.20;;;;;;;12.10;100.00;98628.75;109856;1249;63751;-70
2023/11/09 10:02:57;;;;;;;3.10;1.50;;;;;;;12.16;100.00;98627.35;109853;1250;59904;-69
2023/11/09 10:05:29;;;;;;;2.10;1.50;;;;;;;12.23;100.00;98625.96;109911;1250;59639;-70
2023/11/09 10:07:57;;;;;;;2.20;1.30;;;;;;;12.28;100.00;98624.05;109823;1250;66961;-70
2023/11/09 10:10:26;;;;;;;5.30;1.80;;;;;;;12.35;100.00;98619.83;109378;1251;59935;-70
2023/11/09 10:12:55;;;;;;;1.80;1.50;;;;;;;12.40;100.00;98618.54;109826;1250;63770;-69
2023/11/09 10:15:24;;;;;;;2.00;1.60;;;;;;;12.46;100.00;98615.55;109826;1250;59742;-69
2023/11/09 10:17:52;;;;;;;2.70;1.50;;;;;;;12.51;100.00;98615.99;109815;1250;59856;-69
2023/11/09 10:20:20;;;;;;;1.50;1.10;;;;;;;12.57;100.00;98611.07;109826;1249;66879;-70
2023/11/09 10:22:52;;;;;;;1.10;1.00;;;;;;;12.66;100.00;98605.39;109847;1249;67737;-70
2023/11/09 10:25:19;;;;;;;1.30;1.20;;;;;;;12.74;100.00;98608.29;109833;1250;64324;-70
2023/11/09 10:27:48;;;;;;;3.10;1.10;;;;;;;12.84;100.00;98609.23;109855;1249;59963;-70
2023/11/09 10:30:18;;;;;;;1.60;0.90;;;;;;;12.93;100.00;98610.45;109830;1249;59830;-70
2023/11/09 10:32:46;;;;;;;1.20;0.90;;;;;;;13.02;100.00;98608.83;109617;1248;66669;-69
2023/11/09 10:35:13;;;;;;;2.40;1.40;;;;;;;13.09;100.00;98608.72;109875;1250;59760;-70
2023/11/09 10:37:43;;;;;;;1.20;0.80;;;;;;;13.17;100.00;98608.05;109850;1250;71395;-69
2023/11/09 10:40:14;;;;;;;1.80;1.10;;;;;;;13.24;100.00;98604.34;109876;1250;60635;-69
2023/11/09 10:42:42;;;;;;;1.70;1.20;;;;;;;13.32;100.00;98606.98;109420;1249;60139;-69
2023/11/09 10:45:11;;;;;;;3.00;1.50;;;;;;;13.43;100.00;98606.81;109855;1251;67626;-69
2023/11/09 10:47:39;;;;;;;2.10;1.20;;;;;;;13.48;100.00;98600.88;109857;1249;61403;-69
2023/11/09 10:50:13;;;;;;;2.90;1.20;;;;;;;13.51;100.00;98595.96;109782;1251;65330;-69
2023/11/09 10:52:43;;;;;;;2.70;1.40;;;;;;;13.57;100.00;98595.85;109844;1249;59858;-69
2023/11/09 10:55:16;;;;;;;3.80;1.90;;;;;;;13.62;100.00;98592.71;109826;1249;59969;-69
2023/11/09 10:57:47;;;;;;;6.50;3.70;;;;;;;13.69;100.00;98586.45;109865;1249;67679;-69
2023/11/09 11:00:31;;;;;;;3.90;2.60;;;;;;;13.75;100.00;98585.30;109297;1254;60156;-69
2023/11/09 11:03:25;;;;;;;7.60;3.90;;;;;;;13.83;100.00;98583.73;109155;1254;62627;-69
2023/11/09 11:05:57;;;;;;;3.30;2.40;;;;;;;13.89;100.00;98583.43;109309;1254;59821;-69
2023/11/09 11:08:26;;;;;;;3.70;2.30;;;;;;;13.94;100.00;98587.23;109313;1254;59843;-69
2023/11/09 11:10:54;;;;;;;4.70;1.40;;;;;;;13.98;100.00;98588.16;109313;1254;65673;-69
2023/11/09 11:13:20;;;;;;;2.40;1.50;;;;;;;14.05;100.00;98585.96;109317;1256;60163;-69
2023/11/09 11:15:59;;;;;;;2.50;1.40;;;;;;;14.15;100.00;98587.06;109311;1254;63945;-69
2023/11/09 11:18:46;;;;;;;3.30;1.40;;;;;;;14.28;100.00;98586.48;109325;1254;60073;-71
2023/11/09 11:21:42;;;;;;;1.10;1.00;;;;;;;14.37;100.00;98578.51;109323;1254;59882;-70
2023/11/09 11:24:36;;;;;;;2.60;1.30;;;;;;;14.44;100.00;98576.10;109324;1253;68032;-70
2023/11/09 11:27:30;;;;;;;1.60;0.90;;;;;;;14.52;100.00;98573.02;109344;1254;69756;-70
2023/11/09 11:29:57;;;;;;;1.70;1.00;;;;;;;14.59;100.00;98576.40;109321;1254;63130;-69
2023/11/09 11:32:38;;;;;;;3.00;1.40;;;;;;;14.65;100.00;98574.76;109624;1250;59936;-69